createdAt,value
2017-01-07T00:00:12.726Z,972.04
2017-01-07T00:01:14.626Z,972.03
2017-01-07T00:02:13.242Z,972.05
2017-01-07T00:03:11.020Z,972.02
2017-01-07T00:04:14.490Z,972.06
2017-01-07T00:05:13.580Z,972.04
2017-01-07T00:06:13.570Z,972.06
2017-01-07T00:07:12.430Z,972.07
2017-01-07T00:08:14.227Z,972.00
2017-01-07T00:09:14.732Z,972.00
2017-01-07T00:10:15.135Z,971.99
2017-01-07T00:11:12.852Z,971.99
2017-01-07T00:12:12.521Z,971.97
2017-01-07T00:13:14.260Z,971.98
2017-01-07T00:14:13.858Z,971.95
2017-01-07T00:15:15.236Z,971.94
2017-01-07T00:16:12.058Z,971.93
2017-01-07T00:17:12.856Z,971.94
2017-01-07T00:18:12.641Z,971.91
2017-01-07T00:19:12.748Z,972.02
2017-01-07T00:20:13.802Z,971.99
2017-01-07T00:21:12.979Z,971.94
2017-01-07T00:22:13.566Z,971.96
2017-01-07T00:23:13.807Z,971.92
2017-01-07T00:24:13.472Z,971.94
2017-01-07T00:25:15.179Z,971.92
2017-01-07T00:26:12.875Z,971.89
2017-01-07T00:27:13.490Z,971.89
2017-01-07T00:28:14.243Z,971.89
2017-01-07T00:29:14.039Z,971.94
2017-01-07T00:30:14.597Z,971.95
2017-01-07T00:31:14.314Z,971.92
2017-01-07T00:32:13.443Z,971.93
2017-01-07T00:33:15.292Z,971.90
2017-01-07T00:34:12.763Z,971.86
2017-01-07T00:35:12.921Z,971.91
2017-01-07T00:36:13.430Z,971.91
2017-01-07T00:37:13.628Z,971.91
2017-01-07T00:38:14.273Z,972.00
2017-01-07T00:39:12.884Z,971.93
2017-01-07T00:40:14.226Z,971.95
2017-01-07T00:41:15.516Z,971.97
2017-01-07T00:42:14.187Z,972.00
2017-01-07T00:43:12.763Z,971.96
2017-01-07T00:44:14.256Z,972.02
2017-01-07T00:45:14.901Z,972.00
2017-01-07T00:46:13.433Z,971.95
2017-01-07T00:47:12.987Z,971.93
2017-01-07T00:48:14.710Z,971.91
2017-01-07T00:49:14.356Z,971.95
2017-01-07T00:50:14.352Z,971.92
2017-01-07T00:51:14.322Z,971.93
2017-01-07T00:52:18.941Z,971.92
2017-01-07T00:53:12.764Z,971.92
2017-01-07T00:54:14.496Z,971.91
2017-01-07T00:55:15.155Z,971.91
2017-01-07T00:56:14.019Z,971.86
2017-01-07T00:57:14.513Z,971.81
2017-01-07T00:58:13.483Z,971.86
2017-01-07T00:59:16.287Z,971.79
2017-01-07T01:00:14.560Z,971.83
2017-01-07T01:01:15.006Z,971.80
2017-01-07T01:02:15.600Z,971.75
2017-01-07T01:03:15.664Z,971.71
2017-01-07T01:04:13.304Z,971.71
2017-01-07T01:05:14.263Z,971.74
2017-01-07T01:06:14.371Z,971.74
2017-01-07T01:07:15.844Z,971.78
2017-01-07T01:08:17.401Z,971.78
2017-01-07T01:09:13.479Z,971.76
2017-01-07T01:10:17.124Z,971.75
2017-01-07T01:11:14.714Z,971.75
2017-01-07T01:12:15.322Z,971.77
2017-01-07T01:13:15.471Z,971.77
2017-01-07T01:14:16.522Z,971.73
2017-01-07T01:15:13.742Z,971.71
2017-01-07T01:16:15.023Z,971.67
2017-01-07T01:17:14.744Z,971.65
2017-01-07T01:18:14.471Z,971.67
2017-01-07T01:19:12.146Z,971.65
2017-01-07T01:20:14.622Z,971.66
2017-01-07T01:21:14.995Z,971.69
2017-01-07T01:22:16.408Z,971.71
2017-01-07T01:23:15.954Z,971.72
2017-01-07T01:24:15.570Z,971.70
2017-01-07T01:25:13.922Z,971.71
2017-01-07T01:26:15.303Z,971.66
2017-01-07T01:27:16.180Z,971.68
2017-01-07T01:28:15.646Z,971.62
2017-01-07T01:29:14.258Z,971.63
2017-01-07T01:30:14.301Z,971.60
2017-01-07T01:31:18.170Z,971.58
2017-01-07T01:32:13.039Z,971.62
2017-01-07T01:33:13.064Z,971.57
2017-01-07T01:34:15.542Z,971.52
2017-01-07T01:35:12.041Z,971.55
2017-01-07T01:36:12.837Z,971.57
2017-01-07T01:37:10.702Z,971.55
2017-01-07T01:38:14.847Z,971.52
2017-01-07T01:39:15.797Z,971.53
2017-01-07T01:40:14.900Z,971.48
2017-01-07T01:41:13.610Z,971.46
2017-01-07T01:42:15.550Z,971.52
2017-01-07T01:43:12.841Z,971.48
2017-01-07T01:44:14.342Z,971.48
2017-01-07T01:45:11.653Z,971.45
2017-01-07T01:46:16.288Z,971.47
2017-01-07T01:47:14.049Z,971.40
2017-01-07T01:48:15.681Z,971.35
2017-01-07T01:49:14.320Z,971.35
2017-01-07T01:50:13.556Z,971.33
2017-01-07T01:51:15.457Z,971.43
2017-01-07T01:52:10.756Z,971.42
2017-01-07T01:53:14.361Z,971.38
2017-01-07T01:54:15.785Z,971.37
2017-01-07T01:55:14.096Z,971.35
2017-01-07T01:56:14.140Z,971.37
2017-01-07T01:57:14.644Z,971.37
2017-01-07T01:58:13.465Z,971.33
2017-01-07T01:59:14.188Z,971.30
2017-01-07T02:00:12.629Z,971.27
2017-01-07T02:01:13.265Z,971.25
2017-01-07T02:02:14.947Z,971.24
2017-01-07T02:03:13.087Z,971.24
2017-01-07T02:04:14.380Z,971.24
2017-01-07T02:05:11.120Z,971.21
2017-01-07T02:06:13.832Z,971.24
2017-01-07T02:07:12.956Z,971.20
2017-01-07T02:08:14.527Z,971.22
2017-01-07T02:09:13.238Z,971.19
2017-01-07T02:10:14.415Z,971.16
2017-01-07T02:11:13.435Z,971.17
2017-01-07T02:12:14.046Z,971.21
2017-01-07T02:13:15.491Z,971.20
2017-01-07T02:14:17.961Z,971.18
2017-01-07T02:15:12.436Z,971.19
2017-01-07T02:16:13.107Z,971.18
2017-01-07T02:17:15.513Z,971.22
2017-01-07T02:18:15.110Z,971.18
2017-01-07T02:19:13.106Z,971.24
2017-01-07T02:20:13.787Z,971.22
2017-01-07T02:21:11.817Z,971.24
2017-01-07T02:22:12.512Z,971.27
2017-01-07T02:23:13.376Z,971.29
2017-01-07T02:24:15.119Z,971.30
2017-01-07T02:25:16.809Z,971.27
2017-01-07T02:26:13.635Z,971.21
2017-01-07T02:27:14.023Z,971.22
2017-01-07T02:28:12.600Z,971.23
2017-01-07T02:29:14.894Z,971.23
2017-01-07T02:30:13.301Z,971.24
2017-01-07T02:31:15.078Z,971.22
2017-01-07T02:32:12.483Z,971.17
2017-01-07T02:33:14.868Z,971.19
2017-01-07T02:34:14.518Z,971.16
2017-01-07T02:35:13.639Z,971.16
2017-01-07T02:36:15.605Z,971.14
2017-01-07T02:37:16.503Z,971.17
2017-01-07T02:38:13.678Z,971.14
2017-01-07T02:39:13.577Z,971.12
2017-01-07T02:40:14.265Z,971.11
2017-01-07T02:41:13.326Z,971.08
2017-01-07T02:42:13.536Z,971.13
2017-01-07T02:43:13.244Z,971.09
2017-01-07T02:44:12.784Z,971.11
2017-01-07T02:45:14.607Z,971.06
2017-01-07T02:46:14.361Z,971.08
2017-01-07T02:47:14.902Z,971.11
2017-01-07T02:48:13.931Z,971.13
2017-01-07T02:49:13.471Z,971.16
2017-01-07T02:50:14.135Z,971.15
2017-01-07T02:51:14.110Z,971.14
2017-01-07T02:52:12.735Z,971.16
2017-01-07T02:53:14.249Z,971.17
2017-01-07T02:54:12.848Z,971.14
2017-01-07T02:55:15.141Z,971.13
2017-01-07T02:56:12.991Z,971.11
2017-01-07T02:57:13.669Z,971.11
2017-01-07T02:58:13.638Z,971.11
2017-01-07T02:59:17.799Z,971.13
2017-01-07T03:00:13.561Z,971.15
2017-01-07T03:01:16.325Z,971.16
2017-01-07T03:02:13.602Z,971.15
2017-01-07T03:03:14.595Z,971.11
2017-01-07T03:04:15.092Z,971.09
2017-01-07T03:05:13.087Z,971.08
2017-01-07T03:06:12.709Z,971.03
2017-01-07T03:07:18.617Z,971.04
2017-01-07T03:08:14.548Z,971.06
2017-01-07T03:09:14.164Z,971.08
2017-01-07T03:10:15.160Z,971.14
2017-01-07T03:11:13.825Z,971.08
2017-01-07T03:12:12.525Z,971.12
2017-01-07T03:13:14.313Z,971.09
2017-01-07T03:14:13.296Z,971.11
2017-01-07T03:15:13.033Z,971.08
2017-01-07T03:16:13.246Z,971.09
2017-01-07T03:17:13.348Z,971.05
2017-01-07T03:18:15.229Z,971.09
2017-01-07T03:19:13.937Z,971.11
2017-01-07T03:20:12.123Z,971.11
2017-01-07T03:21:13.005Z,971.17
2017-01-07T03:22:12.219Z,971.16
2017-01-07T03:23:12.794Z,971.17
2017-01-07T03:24:12.870Z,971.18
2017-01-07T03:25:14.715Z,971.10
2017-01-07T03:26:13.715Z,971.12
2017-01-07T03:27:13.612Z,971.11
2017-01-07T03:28:13.670Z,971.10
2017-01-07T03:29:13.733Z,971.10
2017-01-07T03:30:14.328Z,971.11
2017-01-07T03:31:14.616Z,971.07
2017-01-07T03:32:13.184Z,971.11
2017-01-07T03:33:15.071Z,971.11
2017-01-07T03:34:16.744Z,971.14
2017-01-07T03:35:15.200Z,971.12
2017-01-07T03:36:15.061Z,971.10
2017-01-07T03:37:12.633Z,971.10
2017-01-07T03:38:14.224Z,971.10
2017-01-07T03:39:13.824Z,971.09
2017-01-07T03:40:13.626Z,971.12
2017-01-07T03:41:11.852Z,971.06
2017-01-07T03:42:12.912Z,971.07
2017-01-07T03:43:12.774Z,971.08
2017-01-07T03:44:12.415Z,971.10
2017-01-07T03:45:14.129Z,971.08
2017-01-07T03:46:13.542Z,971.08
2017-01-07T03:47:11.837Z,971.09
2017-01-07T03:48:11.494Z,971.08
2017-01-07T03:49:12.054Z,971.02
2017-01-07T03:50:16.837Z,971.07
2017-01-07T03:51:13.787Z,971.08
2017-01-07T03:52:12.385Z,971.10
2017-01-07T03:53:13.397Z,971.10
2017-01-07T03:54:15.743Z,971.11
2017-01-07T03:55:14.535Z,971.10
2017-01-07T03:56:14.253Z,971.07
2017-01-07T03:57:14.934Z,971.03
2017-01-07T03:58:13.520Z,971.04
2017-01-07T03:59:13.304Z,971.01
2017-01-07T04:00:13.997Z,970.97
2017-01-07T04:01:13.789Z,970.92
2017-01-07T04:02:14.369Z,970.92
2017-01-07T04:03:15.280Z,970.93
2017-01-07T04:04:13.548Z,970.89
2017-01-07T04:05:13.752Z,970.85
2017-01-07T04:06:11.792Z,970.87
2017-01-07T04:07:13.576Z,970.85
2017-01-07T04:08:14.566Z,970.83
2017-01-07T04:09:16.405Z,970.79
2017-01-07T04:10:12.934Z,970.79
2017-01-07T04:11:13.110Z,970.75
2017-01-07T04:12:15.147Z,970.83
2017-01-07T04:13:13.747Z,970.85
2017-01-07T04:14:13.329Z,970.89
2017-01-07T04:15:12.988Z,970.92
2017-01-07T04:16:14.952Z,970.87
2017-01-07T04:17:13.911Z,970.88
2017-01-07T04:18:13.092Z,970.86
2017-01-07T04:19:13.730Z,970.89
2017-01-07T04:20:12.388Z,970.88
2017-01-07T04:21:13.670Z,970.87
2017-01-07T04:22:14.294Z,970.87
2017-01-07T04:23:13.868Z,970.85
2017-01-07T04:24:14.645Z,970.90
2017-01-07T04:25:15.226Z,970.92
2017-01-07T04:26:13.231Z,970.89
2017-01-07T04:27:13.127Z,970.91
2017-01-07T04:28:13.137Z,970.88
2017-01-07T04:29:13.856Z,970.86
2017-01-07T04:30:12.494Z,970.84
2017-01-07T04:31:15.070Z,970.81
2017-01-07T04:32:13.782Z,970.77
2017-01-07T04:33:13.311Z,970.77
2017-01-07T04:34:14.531Z,970.76
2017-01-07T04:35:14.848Z,970.78
2017-01-07T04:36:13.003Z,970.78
2017-01-07T04:37:12.283Z,970.75
2017-01-07T04:38:14.533Z,970.73
2017-01-07T04:39:14.319Z,970.70
2017-01-07T04:40:13.862Z,970.68
2017-01-07T04:41:11.724Z,970.67
2017-01-07T04:42:11.618Z,970.64
2017-01-07T04:43:13.973Z,970.64
2017-01-07T04:44:11.943Z,970.61
2017-01-07T04:45:17.446Z,970.62
2017-01-07T04:46:14.521Z,970.64
2017-01-07T04:47:13.663Z,970.64
2017-01-07T04:48:13.975Z,970.64
2017-01-07T04:49:13.634Z,970.62
2017-01-07T04:50:13.221Z,970.59
2017-01-07T04:51:13.868Z,970.62
2017-01-07T04:52:13.433Z,970.58
2017-01-07T04:53:13.202Z,970.56
2017-01-07T04:54:13.275Z,970.60
2017-01-07T04:55:14.160Z,970.58
2017-01-07T04:56:14.416Z,970.56
2017-01-07T04:57:13.903Z,970.54
2017-01-07T04:58:12.573Z,970.54
2017-01-07T04:59:14.685Z,970.56
2017-01-07T05:00:15.482Z,970.62
2017-01-07T05:01:14.051Z,970.62
2017-01-07T05:02:14.842Z,970.67
2017-01-07T05:03:12.965Z,970.68
2017-01-07T05:04:13.901Z,970.66
2017-01-07T05:05:14.067Z,970.65
2017-01-07T05:06:14.029Z,970.65
2017-01-07T05:07:12.706Z,970.62
2017-01-07T05:08:14.325Z,970.64
2017-01-07T05:09:14.135Z,970.62
2017-01-07T05:10:12.177Z,970.60
2017-01-07T05:11:13.866Z,970.58
2017-01-07T05:12:13.475Z,970.57
2017-01-07T05:13:13.135Z,970.51
2017-01-07T05:14:13.698Z,970.46
2017-01-07T05:15:15.780Z,970.42
2017-01-07T05:16:12.427Z,970.38
2017-01-07T05:17:15.408Z,970.42
2017-01-07T05:18:14.266Z,970.33
2017-01-07T05:19:12.926Z,970.29
2017-01-07T05:20:14.732Z,970.34
2017-01-07T05:21:15.577Z,970.31
2017-01-07T05:22:13.465Z,970.30
2017-01-07T05:23:14.397Z,970.28
2017-01-07T05:24:13.055Z,970.31
2017-01-07T05:25:18.813Z,970.24
2017-01-07T05:26:15.794Z,970.24
2017-01-07T05:27:12.885Z,970.23
2017-01-07T05:28:12.871Z,970.29
2017-01-07T05:29:13.632Z,970.30
2017-01-07T05:30:13.741Z,970.39
2017-01-07T05:31:15.299Z,970.41
2017-01-07T05:32:13.931Z,970.41
2017-01-07T05:33:14.207Z,970.43
2017-01-07T05:34:12.836Z,970.44
2017-01-07T05:35:13.261Z,970.42
2017-01-07T05:36:11.060Z,970.48
2017-01-07T05:37:11.798Z,970.50
2017-01-07T05:38:12.000Z,970.53
2017-01-07T05:39:14.323Z,970.56
2017-01-07T05:40:13.495Z,970.56
2017-01-07T05:41:15.337Z,970.46
2017-01-07T05:42:16.544Z,970.39
2017-01-07T05:43:13.164Z,970.25
2017-01-07T05:44:14.595Z,970.19
2017-01-07T05:45:14.453Z,970.14
2017-01-07T05:46:13.155Z,970.15
2017-01-07T05:47:15.873Z,970.16
2017-01-07T05:48:10.837Z,970.14
2017-01-07T05:49:13.414Z,970.15
2017-01-07T05:50:13.985Z,970.22
2017-01-07T05:51:15.659Z,970.24
2017-01-07T05:52:14.453Z,970.29
2017-01-07T05:53:14.363Z,970.33
2017-01-07T05:54:12.842Z,970.34
2017-01-07T05:55:15.331Z,970.38
2017-01-07T05:56:13.962Z,970.39
2017-01-07T05:57:10.296Z,970.32
2017-01-07T05:58:15.104Z,970.30
2017-01-07T05:59:12.797Z,970.28
2017-01-07T06:00:12.354Z,970.33
2017-01-07T06:01:13.944Z,970.37
2017-01-07T06:02:13.521Z,970.38
2017-01-07T06:03:13.755Z,970.37
2017-01-07T06:04:12.277Z,970.34
2017-01-07T06:05:15.969Z,970.35
2017-01-07T06:06:12.490Z,970.39
2017-01-07T06:07:16.575Z,970.41
2017-01-07T06:08:13.893Z,970.35
2017-01-07T06:09:14.469Z,970.32
2017-01-07T06:10:13.732Z,970.32
2017-01-07T06:11:11.096Z,970.28
2017-01-07T06:12:13.227Z,970.27
2017-01-07T06:13:14.256Z,970.27
2017-01-07T06:14:12.928Z,970.27
2017-01-07T06:15:14.738Z,970.31
2017-01-07T06:16:15.152Z,970.35
2017-01-07T06:17:13.721Z,970.32
2017-01-07T06:18:15.025Z,970.30
2017-01-07T06:19:14.744Z,970.23
2017-01-07T06:20:12.998Z,970.22
2017-01-07T06:21:15.633Z,970.16
2017-01-07T06:22:13.674Z,970.16
2017-01-07T06:23:11.900Z,970.17
2017-01-07T06:24:12.666Z,970.18
2017-01-07T06:25:14.841Z,970.14
2017-01-07T06:26:12.728Z,970.13
2017-01-07T06:27:13.326Z,970.13
2017-01-07T06:28:13.882Z,970.10
2017-01-07T06:29:12.413Z,970.10
2017-01-07T06:30:14.459Z,970.09
2017-01-07T06:31:15.993Z,970.08
2017-01-07T06:32:14.028Z,970.09
2017-01-07T06:33:14.970Z,970.13
2017-01-07T06:34:13.624Z,970.13
2017-01-07T06:35:16.362Z,970.13
2017-01-07T06:36:15.133Z,970.16
2017-01-07T06:37:13.232Z,970.16
2017-01-07T06:38:13.626Z,970.17
2017-01-07T06:39:13.300Z,970.11
2017-01-07T06:40:13.830Z,970.11
2017-01-07T06:41:13.159Z,970.08
2017-01-07T06:42:14.207Z,970.08
2017-01-07T06:43:14.784Z,970.12
2017-01-07T06:44:12.797Z,970.16
2017-01-07T06:45:12.944Z,970.19
2017-01-07T06:46:13.495Z,970.17
2017-01-07T06:47:13.248Z,970.23
2017-01-07T06:48:13.209Z,970.23
2017-01-07T06:49:13.791Z,970.26
2017-01-07T06:50:14.366Z,970.24
2017-01-07T06:51:13.016Z,970.25
2017-01-07T06:52:13.218Z,970.19
2017-01-07T06:53:12.870Z,970.19
2017-01-07T06:54:13.527Z,970.19
2017-01-07T06:55:14.175Z,970.17
2017-01-07T06:56:13.999Z,970.16
2017-01-07T06:57:13.761Z,970.15
2017-01-07T06:58:13.384Z,970.13
2017-01-07T06:59:13.908Z,970.11
2017-01-07T07:00:12.515Z,970.08
2017-01-07T07:01:11.575Z,970.09
2017-01-07T07:02:13.377Z,970.11
2017-01-07T07:03:14.237Z,970.11
2017-01-07T07:04:12.747Z,970.14
2017-01-07T07:05:12.379Z,970.14
2017-01-07T07:06:13.093Z,970.14
2017-01-07T07:07:10.328Z,970.06
2017-01-07T07:08:14.270Z,970.10
2017-01-07T07:09:13.216Z,970.12
2017-01-07T07:10:12.754Z,970.10
2017-01-07T07:11:12.555Z,970.07
2017-01-07T07:12:13.251Z,970.06
2017-01-07T07:13:15.621Z,970.05
2017-01-07T07:14:14.420Z,970.11
2017-01-07T07:15:17.501Z,970.14
2017-01-07T07:16:14.916Z,970.15
2017-01-07T07:17:15.916Z,970.10
2017-01-07T07:18:14.493Z,970.11
2017-01-07T07:19:12.919Z,970.10
2017-01-07T07:20:13.899Z,970.10
2017-01-07T07:21:12.672Z,970.14
2017-01-07T07:22:14.283Z,970.17
2017-01-07T07:23:15.196Z,970.21
2017-01-07T07:24:14.011Z,970.25
2017-01-07T07:25:11.325Z,970.26
2017-01-07T07:26:12.539Z,970.25
2017-01-07T07:27:14.345Z,970.20
2017-01-07T07:28:12.356Z,970.20
2017-01-07T07:29:13.734Z,970.20
2017-01-07T07:30:14.415Z,970.23
2017-01-07T07:31:16.124Z,970.17
2017-01-07T07:32:12.652Z,970.22
2017-01-07T07:33:14.066Z,970.27
2017-01-07T07:34:12.723Z,970.31
2017-01-07T07:35:14.243Z,970.31
2017-01-07T07:36:14.961Z,970.29
2017-01-07T07:37:14.610Z,970.30
2017-01-07T07:38:13.354Z,970.32
2017-01-07T07:39:13.004Z,970.27
2017-01-07T07:40:12.702Z,970.31
2017-01-07T07:41:14.959Z,970.28
2017-01-07T07:42:13.075Z,970.29
2017-01-07T07:43:12.752Z,970.30
2017-01-07T07:44:13.446Z,970.33
2017-01-07T07:45:13.930Z,970.27
2017-01-07T07:46:13.798Z,970.21
2017-01-07T07:47:12.379Z,970.19
2017-01-07T07:48:13.414Z,970.19
2017-01-07T07:49:13.119Z,970.17
2017-01-07T07:50:13.321Z,970.18
2017-01-07T07:51:12.926Z,970.23
2017-01-07T07:52:13.736Z,970.23
2017-01-07T07:53:11.411Z,970.28
2017-01-07T07:54:12.623Z,970.31
2017-01-07T07:55:15.686Z,970.28
2017-01-07T07:56:17.423Z,970.31
2017-01-07T07:57:14.083Z,970.25
2017-01-07T07:58:12.602Z,970.21
2017-01-07T07:59:13.081Z,970.18
2017-01-07T08:00:16.174Z,970.20
2017-01-07T08:01:13.821Z,970.17
2017-01-07T08:02:11.779Z,970.21
2017-01-07T08:03:14.144Z,970.16
2017-01-07T08:04:13.738Z,970.15
2017-01-07T08:05:13.256Z,970.12
2017-01-07T08:06:12.043Z,970.07
2017-01-07T08:07:13.806Z,970.07
2017-01-07T08:08:13.621Z,970.01
2017-01-07T08:09:13.566Z,970.03
2017-01-07T08:10:14.058Z,969.99
2017-01-07T08:11:13.390Z,970.00
2017-01-07T08:12:14.225Z,970.00
2017-01-07T08:13:11.923Z,969.99
2017-01-07T08:14:12.830Z,969.95
2017-01-07T08:15:12.337Z,969.95
2017-01-07T08:16:12.196Z,969.95
2017-01-07T08:17:13.871Z,969.91
2017-01-07T08:18:14.555Z,969.92
2017-01-07T08:19:14.171Z,969.92
2017-01-07T08:20:15.857Z,969.91
2017-01-07T08:21:15.062Z,969.94
2017-01-07T08:22:13.236Z,969.86
2017-01-07T08:23:13.794Z,969.86
2017-01-07T08:24:12.803Z,969.87
2017-01-07T08:25:13.315Z,969.87
2017-01-07T08:26:13.461Z,969.76
2017-01-07T08:27:12.461Z,969.76
2017-01-07T08:28:13.104Z,969.70
2017-01-07T08:29:13.080Z,969.72
2017-01-07T08:30:12.116Z,969.70
2017-01-07T08:31:13.889Z,969.73
2017-01-07T08:32:13.419Z,969.74
2017-01-07T08:33:10.805Z,969.78
2017-01-07T08:34:12.560Z,969.78
2017-01-07T08:35:16.160Z,969.73
2017-01-07T08:36:13.758Z,969.78
2017-01-07T08:37:12.414Z,969.76
2017-01-07T08:38:15.097Z,969.75
2017-01-07T08:39:10.992Z,969.72
2017-01-07T08:40:13.748Z,969.73
2017-01-07T08:41:13.460Z,969.83
2017-01-07T08:42:14.150Z,969.86
2017-01-07T08:43:14.421Z,969.87
2017-01-07T08:44:13.224Z,969.91
2017-01-07T08:45:13.930Z,969.97
2017-01-07T08:46:11.960Z,969.99
2017-01-07T08:47:13.833Z,969.97
2017-01-07T08:48:12.339Z,969.96
2017-01-07T08:49:14.126Z,969.99
2017-01-07T08:50:13.829Z,970.00
2017-01-07T08:51:12.591Z,970.02
2017-01-07T08:52:13.342Z,970.04
2017-01-07T08:53:13.046Z,970.01
2017-01-07T08:54:13.750Z,970.05
2017-01-07T08:55:13.622Z,970.01
2017-01-07T08:56:13.358Z,970.05
2017-01-07T08:57:13.990Z,970.06
2017-01-07T08:58:15.894Z,970.05
2017-01-07T08:59:12.401Z,970.07
2017-01-07T09:00:15.789Z,970.05
2017-01-07T09:01:12.389Z,970.07
2017-01-07T09:02:10.979Z,970.05
2017-01-07T09:03:12.971Z,970.07
2017-01-07T09:04:12.891Z,970.06
2017-01-07T09:05:10.186Z,970.11
2017-01-07T09:06:13.004Z,970.16
2017-01-07T09:07:12.566Z,970.21
2017-01-07T09:08:13.516Z,970.19
2017-01-07T09:09:12.158Z,970.21
2017-01-07T09:10:13.079Z,970.26
2017-01-07T09:11:14.842Z,970.30
2017-01-07T09:12:13.689Z,970.43
2017-01-07T09:13:20.774Z,970.28
2017-01-07T09:14:12.073Z,970.20
2017-01-07T09:15:13.127Z,970.09
2017-01-07T09:16:13.262Z,970.08
2017-01-07T09:17:16.476Z,970.08
2017-01-07T09:18:15.346Z,970.13
2017-01-07T09:19:12.955Z,970.11
2017-01-07T09:20:13.022Z,970.12
2017-01-07T09:21:12.647Z,970.03
2017-01-07T09:22:14.385Z,970.01
2017-01-07T09:23:13.693Z,969.92
2017-01-07T09:24:13.456Z,969.87
2017-01-07T09:25:13.013Z,969.85
2017-01-07T09:26:11.999Z,969.84
2017-01-07T09:27:14.845Z,969.82
2017-01-07T09:28:12.500Z,969.87
2017-01-07T09:29:13.491Z,969.88
2017-01-07T09:30:13.065Z,969.92
2017-01-07T09:31:13.618Z,969.84
2017-01-07T09:32:15.373Z,969.86
2017-01-07T09:33:13.358Z,969.79
2017-01-07T09:34:13.506Z,969.77
2017-01-07T09:35:14.303Z,969.75
2017-01-07T09:36:12.131Z,969.76
2017-01-07T09:37:14.042Z,969.75
2017-01-07T09:38:13.019Z,969.76
2017-01-07T09:39:10.941Z,969.71
2017-01-07T09:40:12.732Z,969.73
2017-01-07T09:41:15.372Z,969.70
2017-01-07T09:42:16.204Z,969.71
2017-01-07T09:43:13.627Z,969.72
2017-01-07T09:44:13.753Z,969.78
2017-01-07T09:45:14.784Z,969.74
2017-01-07T09:46:14.359Z,969.74
2017-01-07T09:47:12.174Z,969.69
2017-01-07T09:48:14.411Z,969.66
2017-01-07T09:49:14.252Z,969.66
2017-01-07T09:50:14.049Z,969.63
2017-01-07T09:51:12.617Z,969.63
2017-01-07T09:52:14.283Z,969.67
2017-01-07T09:53:12.796Z,969.69
2017-01-07T09:54:11.377Z,969.69
2017-01-07T09:55:13.727Z,969.66
2017-01-07T09:56:14.300Z,969.62
2017-01-07T09:57:13.289Z,969.64
2017-01-07T09:58:13.396Z,969.63
2017-01-07T09:59:14.132Z,969.65
2017-01-07T10:00:13.798Z,969.62
2017-01-07T10:01:13.420Z,969.58
2017-01-07T10:02:14.127Z,969.61
2017-01-07T10:03:14.732Z,969.64
2017-01-07T10:04:11.800Z,969.61
2017-01-07T10:05:12.589Z,969.59
2017-01-07T10:06:14.853Z,969.61
2017-01-07T10:07:12.472Z,969.64
2017-01-07T10:08:15.109Z,969.59
2017-01-07T10:09:13.703Z,969.57
2017-01-07T10:10:14.169Z,969.54
2017-01-07T10:11:12.610Z,969.42
2017-01-07T10:12:13.704Z,969.44
2017-01-07T10:13:13.070Z,969.41
2017-01-07T10:14:13.067Z,969.35
2017-01-07T10:15:12.741Z,969.30
2017-01-07T10:16:12.611Z,969.31
2017-01-07T10:17:14.563Z,969.23
2017-01-07T10:18:15.240Z,969.20
2017-01-07T10:19:13.152Z,969.17
2017-01-07T10:20:13.732Z,969.15
2017-01-07T10:21:12.629Z,969.18
2017-01-07T10:22:13.267Z,969.15
2017-01-07T10:23:13.968Z,969.10
2017-01-07T10:24:12.391Z,969.16
2017-01-07T10:25:12.002Z,969.15
2017-01-07T10:26:14.764Z,969.13
2017-01-07T10:27:13.865Z,969.08
2017-01-07T10:28:12.862Z,969.04
2017-01-07T10:29:13.649Z,969.07
2017-01-07T10:30:13.238Z,969.08
2017-01-07T10:31:13.790Z,969.07
2017-01-07T10:32:12.909Z,969.00
2017-01-07T10:33:13.772Z,969.03
2017-01-07T10:34:13.289Z,969.08
2017-01-07T10:35:13.830Z,969.06
2017-01-07T10:36:12.580Z,969.07
2017-01-07T10:37:13.253Z,969.17
2017-01-07T10:38:12.451Z,969.14
2017-01-07T10:39:14.148Z,969.12
2017-01-07T10:40:14.835Z,969.08
2017-01-07T10:41:13.616Z,969.06
2017-01-07T10:42:14.265Z,969.05
2017-01-07T10:43:14.023Z,969.00
2017-01-07T10:44:12.597Z,968.94
2017-01-07T10:45:15.308Z,968.93
2017-01-07T10:46:13.308Z,968.98
2017-01-07T10:47:14.494Z,968.94
2017-01-07T10:48:15.282Z,968.92
2017-01-07T10:49:12.916Z,968.92
2017-01-07T10:50:13.079Z,968.88
2017-01-07T10:51:13.098Z,968.92
2017-01-07T10:52:12.101Z,968.91
2017-01-07T10:53:17.453Z,968.91
2017-01-07T10:54:14.396Z,968.87
2017-01-07T10:55:14.137Z,968.90
2017-01-07T10:56:13.090Z,968.85
2017-01-07T10:57:12.670Z,968.88
2017-01-07T10:58:14.133Z,968.84
2017-01-07T10:59:13.772Z,968.80
2017-01-07T11:00:12.404Z,968.87
2017-01-07T11:01:12.937Z,968.82
2017-01-07T11:02:12.267Z,968.81
2017-01-07T11:03:13.311Z,968.77
2017-01-07T11:04:14.127Z,968.77
2017-01-07T11:05:12.153Z,968.82
2017-01-07T11:06:12.930Z,968.76
2017-01-07T11:07:13.659Z,968.74
2017-01-07T11:08:12.673Z,968.76
2017-01-07T11:09:15.137Z,968.76
2017-01-07T11:10:14.905Z,968.76
2017-01-07T11:11:12.753Z,968.70
2017-01-07T11:12:10.290Z,968.72
2017-01-07T11:13:13.990Z,968.65
2017-01-07T11:14:12.638Z,968.64
2017-01-07T11:15:14.683Z,968.64
2017-01-07T11:16:11.050Z,968.61
2017-01-07T11:17:14.015Z,968.59
2017-01-07T11:18:12.648Z,968.59
2017-01-07T11:19:13.750Z,968.58
2017-01-07T11:20:13.499Z,968.56
2017-01-07T11:21:14.223Z,968.59
2017-01-07T11:22:13.951Z,968.50
2017-01-07T11:23:14.568Z,968.49
2017-01-07T11:24:15.134Z,968.45
2017-01-07T11:25:13.178Z,968.48
2017-01-07T11:26:13.011Z,968.49
2017-01-07T11:27:13.593Z,968.42
2017-01-07T11:28:15.486Z,968.45
2017-01-07T11:29:12.364Z,968.40
2017-01-07T11:30:14.450Z,968.37
2017-01-07T11:31:12.783Z,968.35
2017-01-07T11:32:14.011Z,968.33
2017-01-07T11:33:12.509Z,968.31
2017-01-07T11:34:15.177Z,968.29
2017-01-07T11:35:13.735Z,968.28
2017-01-07T11:36:14.016Z,968.25
2017-01-07T11:37:14.640Z,968.28
2017-01-07T11:38:13.449Z,968.23
2017-01-07T11:39:13.897Z,968.23
2017-01-07T11:40:12.916Z,968.18
2017-01-07T11:41:11.841Z,968.14
2017-01-07T11:42:13.478Z,968.08
2017-01-07T11:43:13.502Z,968.10
2017-01-07T11:44:12.531Z,968.05
2017-01-07T11:45:13.736Z,968.03
2017-01-07T11:46:12.862Z,968.01
2017-01-07T11:47:12.462Z,968.07
2017-01-07T11:48:14.445Z,968.08
2017-01-07T11:49:12.917Z,968.02
2017-01-07T11:50:12.540Z,967.99
2017-01-07T11:51:15.105Z,967.98
2017-01-07T11:52:14.950Z,967.90
2017-01-07T11:53:13.230Z,967.93
2017-01-07T11:54:14.540Z,967.89
2017-01-07T11:55:15.185Z,967.90
2017-01-07T11:56:14.165Z,967.95
2017-01-07T11:57:14.763Z,967.89
2017-01-07T11:58:12.892Z,967.87
2017-01-07T11:59:10.906Z,967.88
2017-01-07T12:00:13.117Z,967.81
2017-01-07T12:01:13.769Z,967.79
2017-01-07T12:02:12.783Z,967.76
2017-01-07T12:03:10.966Z,967.75
2017-01-07T12:04:13.187Z,967.79
2017-01-07T12:05:13.245Z,967.78
2017-01-07T12:06:12.234Z,967.85
2017-01-07T12:07:14.443Z,967.84
2017-01-07T12:08:14.133Z,967.84
2017-01-07T12:09:13.912Z,967.81
2017-01-07T12:10:14.686Z,967.82
2017-01-07T12:11:13.228Z,967.86
2017-01-07T12:12:15.947Z,967.84
2017-01-07T12:13:14.357Z,967.82
2017-01-07T12:14:13.358Z,967.80
2017-01-07T12:15:13.076Z,967.74
2017-01-07T12:16:13.670Z,967.73
2017-01-07T12:17:13.362Z,967.77
2017-01-07T12:18:13.070Z,967.69
2017-01-07T12:19:15.543Z,967.69
2017-01-07T12:20:13.785Z,967.64
2017-01-07T12:21:13.202Z,967.64
2017-01-07T12:22:13.795Z,967.66
2017-01-07T12:23:11.571Z,967.59
2017-01-07T12:24:13.185Z,967.58
2017-01-07T12:25:13.074Z,967.56
2017-01-07T12:26:13.299Z,967.55
2017-01-07T12:27:12.812Z,967.48
2017-01-07T12:28:13.521Z,967.55